Time;durP1;ratioP1;P1;durP2;ratioP2;P2;SDS_P1;SDS_P2;PMS_P1;PMS_P2;Temp;Humidity;BMP_temperature;BMP_pressure;BME280_temperature;BME280_humidity;BME280_pressure;Samples;Min_cycle;Max_cycle;Signal;HPM_P1;HPM_P2
2022/04/11 00:00:25;;;;;;;6.28;3.42;;;1.80;99.90;;;;;;4940154;28;20195;-70
2022/04/11 00:02:51;;;;;;;5.43;2.97;;;1.80;99.90;;;;;;4969989;28;20047;-70
2022/04/11 00:05:17;;;;;;;10.45;3.20;;;2.00;99.90;;;;;;4956421;28;20054;-69
2022/04/11 00:07:43;;;;;;;5.95;3.47;;;1.70;99.90;;;;;;4955938;28;20409;-69
2022/04/11 00:10:08;;;;;;;8.02;3.85;;;1.70;99.90;;;;;;4955708;28;20039;-69
2022/04/11 00:12:36;;;;;;;5.25;3.53;;;2.10;99.90;;;;;;4955133;28;20130;-69
2022/04/11 00:15:06;;;;;;;9.20;3.42;;;1.60;99.90;;;;;;4971466;28;20059;-69
2022/04/11 00:17:32;;;;;;;6.20;3.30;;;1.60;99.90;;;;;;4956437;28;20050;-69
2022/04/11 00:19:58;;;;;;;5.97;3.60;;;1.60;99.90;;;;;;4970734;28;20047;-70
2022/04/11 00:22:24;;;;;;;4.72;3.28;;;1.60;99.90;;;;;;4960087;28;20046;-69
2022/04/11 00:24:50;;;;;;;6.25;3.70;;;1.60;99.90;;;;;;4971597;28;20079;-69
2022/04/11 00:27:16;;;;;;;7.68;3.70;;;1.60;99.90;;;;;;4970900;28;20455;-68
2022/04/11 00:29:42;;;;;;;5.90;3.85;;;2.40;99.90;;;;;;4971965;28;20129;-69
2022/04/11 00:32:08;;;;;;;9.32;3.70;;;1.60;99.90;;;;;;4971701;28;20069;-69
2022/04/11 00:34:34;;;;;;;5.05;3.15;;;1.60;99.90;;;;;;4970279;28;20090;-69
2022/04/11 00:36:59;;;;;;;6.22;3.38;;;1.60;99.90;;;;;;4970842;28;20079;-69
2022/04/11 00:39:25;;;;;;;6.75;3.90;;;1.50;99.90;;;;;;4970864;28;20069;-71
2022/04/11 00:41:51;;;;;;;4.65;3.42;;;1.70;99.90;;;;;;4954480;28;20050;-69
2022/04/11 00:44:16;;;;;;;6.57;4.00;;;1.90;99.90;;;;;;4971456;28;20133;-69
2022/04/11 00:46:42;;;;;;;6.25;3.67;;;1.50;99.90;;;;;;4972522;28;20392;-69
2022/04/11 00:49:09;;;;;;;7.63;4.00;;;1.40;99.90;;;;;;4971000;28;20138;-68
2022/04/11 00:51:34;;;;;;;8.45;4.20;;;2.40;99.90;;;;;;4954560;28;20062;-70
2022/04/11 00:54:01;;;;;;;7.63;3.60;;;1.40;99.90;;;;;;4970310;28;20063;-69
2022/04/11 00:56:28;;;;;;;7.53;4.00;;;1.40;99.90;;;;;;4970553;28;20039;-69
2022/04/11 00:58:55;;;;;;;7.90;3.50;;;2.00;99.90;;;;;;4970764;28;20218;-69
2022/04/11 01:01:21;;;;;;;9.50;4.50;;;1.90;99.90;;;;;;4970902;28;20050;-69
2022/04/11 01:03:47;;;;;;;7.53;4.80;;;2.20;99.90;;;;;;4954020;28;20054;-70
2022/04/11 01:06:13;;;;;;;6.85;4.40;;;1.30;99.90;;;;;;4970358;28;20039;-69
2022/04/11 01:08:38;;;;;;;9.23;4.13;;;1.30;99.90;;;;;;4969757;28;20045;-71
2022/04/11 01:11:05;;;;;;;6.55;4.50;;;1.20;99.90;;;;;;4954620;28;20113;-70
2022/04/11 01:13:31;;;;;;;7.05;4.50;;;1.90;99.90;;;;;;4968677;28;20506;-69
2022/04/11 01:15:58;;;;;;;8.35;4.30;;;1.70;99.90;;;;;;4938719;28;20047;-69
2022/04/11 01:18:25;;;;;;;10.18;4.53;;;1.20;99.90;;;;;;4970489;28;20052;-69
2022/04/11 01:20:51;;;;;;;6.90;4.20;;;2.20;99.90;;;;;;4956109;28;20055;-69
2022/04/11 01:23:17;;;;;;;5.68;4.32;;;1.20;99.90;;;;;;4973520;28;20051;-70
2022/04/11 01:25:48;;;;;;;7.75;4.30;;;2.00;99.90;;;;;;4972158;28;20073;-69
2022/04/11 01:28:14;;;;;;;9.30;4.47;;;1.30;99.90;;;;;;4974026;28;20050;-69
2022/04/11 01:30:40;;;;;;;7.32;4.43;;;1.10;99.90;;;;;;4974527;28;20046;-69
2022/04/11 01:33:35;;;;;;;6.10;4.20;;;1.10;99.90;;;;;;4973663;28;20039;-69
2022/04/11 01:36:00;;;;;;;6.68;3.88;;;1.10;99.90;;;;;;4949764;28;20514;-69
2022/04/11 01:38:26;;;;;;;5.78;4.07;;;1.10;99.90;;;;;;4974148;28;20125;-68
2022/04/11 01:40:56;;;;;;;6.80;4.28;;;1.00;99.90;;;;;;4958092;28;20049;-70
2022/04/11 01:43:23;;;;;;;7.07;4.35;;;1.00;99.90;;;;;;4957605;28;20043;-69
2022/04/11 01:45:50;;;;;;;8.02;4.30;;;1.00;99.90;;;;;;4973888;28;20067;-71
2022/04/11 01:48:16;;;;;;;7.85;4.70;;;1.80;99.90;;;;;;4955885;28;20564;-69
2022/04/11 01:50:42;;;;;;;8.20;3.88;;;1.80;99.90;;;;;;4974689;28;20097;-68
2022/04/11 01:53:13;;;;;;;5.22;4.10;;;1.00;99.90;;;;;;4958179;28;20480;-68
2022/04/11 01:55:39;;;;;;;4.93;4.03;;;1.10;99.90;;;;;;4955986;28;20062;-68
2022/04/11 01:58:06;;;;;;;7.07;4.55;;;1.00;99.90;;;;;;4973586;28;20133;-69
2022/04/11 02:00:34;;;;;;;7.18;4.70;;;1.00;99.90;;;;;;4957410;28;20055;-68
2022/04/11 02:03:00;;;;;;;10.65;4.38;;;1.00;99.90;;;;;;4973452;28;20125;-68
2022/04/11 02:05:27;;;;;;;7.45;4.80;;;1.30;99.90;;;;;;4973302;28;20090;-69
2022/04/11 02:07:53;;;;;;;9.68;4.70;;;1.00;99.90;;;;;;4973309;28;20050;-68
2022/04/11 02:10:19;;;;;;;12.32;4.53;;;1.00;99.90;;;;;;4957729;28;20050;-69
2022/04/11 02:12:47;;;;;;;8.75;4.40;;;1.00;99.90;;;;;;4973258;28;20349;-68
2022/04/11 02:15:13;;;;;;;6.60;4.53;;;1.00;99.90;;;;;;4957377;28;20129;-68
2022/04/11 02:17:39;;;;;;;8.32;4.80;;;1.00;99.90;;;;;;4957326;28;20150;-69
2022/04/11 02:20:06;;;;;;;6.53;4.03;;;1.00;99.90;;;;;;4957079;28;20054;-69
2022/04/11 02:22:49;;;;;;;8.20;4.82;;;1.00;99.90;;;;;;4973095;28;20046;-69
2022/04/11 02:25:16;;;;;;;9.10;4.35;;;1.30;99.90;;;;;;4957251;28;20161;-68
2022/04/11 02:27:43;;;;;;;5.72;4.10;;;0.90;99.90;;;;;;4973066;28;20051;-68
2022/04/11 02:30:10;;;;;;;7.22;4.43;;;0.90;99.90;;;;;;4956655;28;20050;-68
2022/04/11 02:32:36;;;;;;;7.03;4.00;;;1.00;99.90;;;;;;4972952;28;20045;-67
2022/04/11 02:35:03;;;;;;;6.55;4.15;;;1.60;99.90;;;;;;4956983;28;20178;-67
2022/04/11 02:37:29;;;;;;;6.47;4.00;;;0.90;99.90;;;;;;4973064;28;20439;-69
2022/04/11 02:39:55;;;;;;;6.72;4.03;;;1.50;99.90;;;;;;4972528;28;20055;-69
2022/04/11 02:42:24;;;;;;;8.30;3.95;;;0.90;99.90;;;;;;4972933;28;20133;-68
2022/04/11 02:44:51;;;;;;;7.18;4.07;;;0.90;99.90;;;;;;4970327;28;20137;-68
2022/04/11 02:47:17;;;;;;;6.55;4.80;;;0.80;99.90;;;;;;4954680;28;20085;-69
2022/04/11 02:49:43;;;;;;;7.80;4.95;;;0.80;99.90;;;;;;4972723;28;20078;-69
2022/04/11 02:52:11;;;;;;;10.73;5.40;;;0.80;99.90;;;;;;4972194;28;20527;-67
2022/04/11 02:54:37;;;;;;;9.88;5.28;;;0.80;99.90;;;;;;4967272;28;20053;-68
2022/04/11 02:57:03;;;;;;;12.07;5.80;;;0.80;99.90;;;;;;4972778;28;20058;-68
2022/04/11 02:59:29;;;;;;;9.18;5.50;;;0.80;99.90;;;;;;4972474;28;20137;-67
2022/04/11 03:01:56;;;;;;;12.75;5.75;;;0.90;99.90;;;;;;4972673;28;20515;-70
2022/04/11 03:04:22;;;;;;;11.77;5.75;;;0.80;99.90;;;;;;4972844;28;20132;-67
2022/04/11 03:06:47;;;;;;;10.35;5.25;;;1.30;99.90;;;;;;4956351;28;20099;-68
2022/04/11 03:09:13;;;;;;;8.98;5.00;;;0.80;99.90;;;;;;4972158;28;20058;-69
2022/04/11 03:11:39;;;;;;;9.57;5.05;;;0.80;99.90;;;;;;4956031;28;20125;-68
2022/04/11 03:14:04;;;;;;;9.52;4.55;;;1.00;99.90;;;;;;4971740;28;20058;-69
2022/04/11 03:16:31;;;;;;;9.15;4.95;;;0.80;99.90;;;;;;4956533;28;20042;-67
2022/04/11 03:18:57;;;;;;;8.68;4.65;;;0.80;99.90;;;;;;4971894;28;20094;-68
2022/04/11 03:21:23;;;;;;;6.95;4.32;;;0.80;99.90;;;;;;4971903;28;20070;-68
2022/04/11 03:23:48;;;;;;;10.55;4.72;;;0.80;99.90;;;;;;4971737;28;20059;-68
2022/04/11 03:26:14;;;;;;;8.35;3.85;;;0.80;99.90;;;;;;4957032;28;20517;-68
2022/04/11 03:28:40;;;;;;;8.27;4.30;;;0.80;99.90;;;;;;4941012;28;20609;-68
2022/04/11 03:31:06;;;;;;;8.88;4.70;;;1.50;99.90;;;;;;4972001;28;20392;-68
2022/04/11 03:33:32;;;;;;;6.68;4.40;;;0.80;99.90;;;;;;4955928;28;20070;-68
2022/04/11 03:35:58;;;;;;;8.60;4.63;;;1.20;99.90;;;;;;4955968;28;20381;-69
2022/04/11 03:38:23;;;;;;;8.32;4.80;;;0.80;99.90;;;;;;4971660;28;20053;-68
2022/04/11 03:40:49;;;;;;;7.05;3.95;;;0.90;99.90;;;;;;4955884;28;20085;-68
2022/04/11 03:43:15;;;;;;;5.53;3.85;;;0.90;99.90;;;;;;4970609;28;20464;-68
2022/04/11 03:45:41;;;;;;;6.65;4.35;;;0.90;99.90;;;;;;4940541;28;20051;-68
2022/04/11 03:48:07;;;;;;;6.15;3.70;;;0.90;99.90;;;;;;4972716;28;20134;-67
2022/04/11 03:50:33;;;;;;;7.85;4.30;;;0.90;99.90;;;;;;4972866;28;20046;-67
2022/04/11 03:52:58;;;;;;;8.32;4.10;;;1.00;99.90;;;;;;4970465;28;20039;-69
2022/04/11 03:55:24;;;;;;;6.95;4.03;;;1.00;99.90;;;;;;4954123;28;20062;-69
2022/04/11 03:57:51;;;;;;;5.60;3.97;;;1.10;99.90;;;;;;4955652;28;20364;-68
2022/04/11 04:00:17;;;;;;;9.25;4.13;;;1.60;99.90;;;;;;4955820;28;20484;-68
2022/04/11 04:02:43;;;;;;;7.50;4.05;;;1.20;99.90;;;;;;4954698;28;20046;-68
2022/04/11 04:05:09;;;;;;;6.25;3.80;;;1.20;99.90;;;;;;4969290;28;20410;-68
2022/04/11 04:07:36;;;;;;;8.82;4.10;;;1.20;99.90;;;;;;4970931;28;20038;-68
2022/04/11 04:10:03;;;;;;;11.55;3.67;;;1.30;99.90;;;;;;4972779;28;20054;-68
2022/04/11 04:12:29;;;;;;;6.85;3.55;;;1.30;99.90;;;;;;4972144;28;20126;-68
2022/04/11 04:14:55;;;;;;;6.25;3.58;;;1.70;99.90;;;;;;4972773;28;20569;-70
2022/04/11 04:17:24;;;;;;;7.72;3.70;;;1.40;99.90;;;;;;4971647;28;20053;-68
2022/04/11 04:19:50;;;;;;;6.60;3.92;;;1.50;99.90;;;;;;4971352;28;20106;-68
2022/04/11 04:22:16;;;;;;;8.43;3.58;;;1.50;99.90;;;;;;4955024;28;20050;-67
2022/04/11 04:24:42;;;;;;;7.03;3.97;;;2.10;99.90;;;;;;4971314;28;20057;-70
2022/04/11 04:27:08;;;;;;;8.05;3.83;;;1.50;99.90;;;;;;4969049;28;20550;-68
2022/04/11 04:29:35;;;;;;;7.45;4.00;;;1.60;99.90;;;;;;4971239;28;20047;-68
2022/04/11 04:32:01;;;;;;;5.13;3.67;;;1.60;99.90;;;;;;4970582;28;20054;-68
2022/04/11 04:34:29;;;;;;;6.22;4.10;;;1.70;99.90;;;;;;4970839;28;20050;-69
2022/04/11 04:36:54;;;;;;;5.97;3.75;;;1.80;99.90;;;;;;4970113;28;20755;-69
2022/04/11 04:39:20;;;;;;;6.85;3.60;;;1.80;99.90;;;;;;4970182;28;20046;-69
2022/04/11 04:41:46;;;;;;;7.43;4.00;;;2.30;99.90;;;;;;4969969;28;20126;-68
2022/04/11 04:44:12;;;;;;;6.03;3.90;;;1.90;99.90;;;;;;4970502;28;20502;-68
2022/04/11 04:46:38;;;;;;;6.20;4.07;;;1.90;99.90;;;;;;4970804;28;20137;-68
2022/04/11 04:49:04;;;;;;;4.35;3.70;;;1.90;99.90;;;;;;4954412;28;20047;-68
2022/04/11 04:51:30;;;;;;;6.68;4.00;;;2.00;99.90;;;;;;4937589;28;20050;-68
2022/04/11 04:53:56;;;;;;;8.20;4.05;;;2.00;99.90;;;;;;4969526;28;20050;-69
2022/04/11 04:56:22;;;;;;;9.45;4.25;;;2.00;99.90;;;;;;4955293;28;20063;-68
2022/04/11 04:58:49;;;;;;;7.75;4.10;;;2.00;99.90;;;;;;4954849;28;20510;-68
2022/04/11 05:01:15;;;;;;;7.45;4.40;;;2.10;99.90;;;;;;4970419;28;20156;-68
2022/04/11 05:03:41;;;;;;;8.10;4.30;;;2.10;99.90;;;;;;4954070;28;20547;-68
2022/04/11 05:06:07;;;;;;;7.18;3.80;;;2.20;99.90;;;;;;4970718;28;20189;-68
2022/04/11 05:08:34;;;;;;;6.20;3.95;;;2.20;99.90;;;;;;4969948;28;20101;-69
2022/04/11 05:11:00;;;;;;;5.70;3.58;;;2.20;99.90;;;;;;4970584;28;20517;-68
2022/04/11 05:13:26;;;;;;;7.50;4.15;;;2.30;99.90;;;;;;4954051;28;20047;-68
2022/04/11 05:15:52;;;;;;;5.63;4.05;;;2.30;99.90;;;;;;4970944;28;20110;-68
2022/04/11 05:18:18;;;;;;;6.60;4.18;;;2.40;99.90;;;;;;4970366;28;20514;-68
2022/04/11 05:20:44;;;;;;;6.80;4.10;;;2.70;99.90;;;;;;4969727;28;20051;-68
2022/04/11 05:23:10;;;;;;;7.63;4.07;;;2.50;99.90;;;;;;4970146;28;20411;-68
2022/04/11 05:25:36;;;;;;;7.47;4.05;;;2.60;99.90;;;;;;4970687;28;20047;-68
2022/04/11 05:28:02;;;;;;;6.57;4.40;;;2.60;99.90;;;;;;4970023;28;20496;-69
2022/04/11 05:30:33;;;;;;;9.07;4.28;;;2.60;99.90;;;;;;4968649;28;20035;-68
2022/04/11 05:33:00;;;;;;;6.35;4.03;;;2.70;99.90;;;;;;4971056;28;20111;-68
2022/04/11 05:35:26;;;;;;;6.00;4.30;;;2.70;99.90;;;;;;4955831;28;20042;-69
2022/04/11 05:37:52;;;;;;;8.70;4.70;;;2.70;99.90;;;;;;4970413;28;20130;-68
2022/04/11 05:40:18;;;;;;;7.38;4.82;;;2.80;99.90;;;;;;4970708;28;20125;-69
2022/04/11 05:42:44;;;;;;;8.25;4.25;;;2.90;99.90;;;;;;4970082;28;20129;-69
2022/04/11 05:45:10;;;;;;;7.90;4.55;;;3.00;99.90;;;;;;4970415;28;20369;-69
2022/04/11 05:47:36;;;;;;;9.52;4.70;;;3.00;99.90;;;;;;4967514;28;20047;-69
2022/04/11 05:50:02;;;;;;;6.80;4.45;;;3.20;99.90;;;;;;4970295;28;20058;-70
2022/04/11 05:52:27;;;;;;;9.13;4.93;;;3.70;99.90;;;;;;4968131;28;20051;-69
2022/04/11 05:54:53;;;;;;;8.00;4.13;;;3.30;99.90;;;;;;4970379;28;20131;-69
2022/04/11 05:57:19;;;;;;;7.80;5.25;;;3.30;99.90;;;;;;4970339;28;20487;-70
2022/04/11 05:59:45;;;;;;;6.15;4.13;;;3.40;99.90;;;;;;4970202;28;20053;-69
2022/04/11 06:02:11;;;;;;;6.57;4.45;;;3.70;99.90;;;;;;4969626;28;20113;-70
2022/04/11 06:04:37;;;;;;;9.60;4.63;;;4.00;99.90;;;;;;4971038;28;20050;-70
2022/04/11 06:07:06;;;;;;;8.20;5.13;;;3.50;99.90;;;;;;4973784;28;20074;-69
2022/04/11 06:09:32;;;;;;;7.35;4.50;;;3.70;99.90;;;;;;4957873;28;20487;-70
2022/04/11 06:11:58;;;;;;;9.15;5.07;;;3.70;99.90;;;;;;4973483;28;20069;-70
2022/04/11 06:14:24;;;;;;;8.00;4.90;;;3.80;99.90;;;;;;4941467;28;20341;-70
2022/04/11 06:16:50;;;;;;;8.02;5.07;;;3.90;99.90;;;;;;4973391;28;20046;-71
2022/04/11 06:19:19;;;;;;;9.30;4.75;;;4.00;99.90;;;;;;4973181;28;20116;-70
2022/04/11 06:21:45;;;;;;;8.88;4.68;;;4.10;99.90;;;;;;4956917;28;20160;-71
2022/04/11 06:24:11;;;;;;;8.55;4.60;;;4.20;99.90;;;;;;4973672;28;20491;-69
2022/04/11 06:26:37;;;;;;;7.18;4.15;;;4.20;99.90;;;;;;4973563;28;20047;-71
2022/04/11 06:29:03;;;;;;;9.07;4.68;;;4.30;99.90;;;;;;4973336;28;20133;-71
2022/04/11 06:31:29;;;;;;;9.18;4.65;;;4.40;99.90;;;;;;4972633;28;20146;-70
2022/04/11 06:33:54;;;;;;;9.23;4.45;;;4.50;99.90;;;;;;4974907;28;20089;-70
2022/04/11 06:36:20;;;;;;;9.55;4.65;;;4.60;99.90;;;;;;4956728;28;20102;-72
2022/04/11 06:38:46;;;;;;;6.93;4.18;;;4.70;99.90;;;;;;4974095;28;20539;-70
2022/04/11 06:41:12;;;;;;;8.32;4.70;;;4.80;99.90;;;;;;4972742;28;20476;-70
2022/04/11 06:43:38;;;;;;;11.23;4.45;;;4.80;99.90;;;;;;4973051;28;20173;-70
2022/04/11 06:46:04;;;;;;;8.75;4.93;;;4.90;99.90;;;;;;4972939;28;20129;-71
2022/04/11 06:48:30;;;;;;;8.35;4.82;;;5.00;99.90;;;;;;4972570;28;20058;-70
2022/04/11 06:50:56;;;;;;;7.85;4.45;;;5.30;99.90;;;;;;4956792;28;20101;-71
2022/04/11 06:53:22;;;;;;;11.30;4.65;;;5.10;99.90;;;;;;4972476;28;20058;-72
2022/04/11 06:55:48;;;;;;;5.50;3.83;;;5.20;99.90;;;;;;4956718;28;20051;-69
2022/04/11 06:58:16;;;;;;;9.23;4.10;;;5.30;99.90;;;;;;4972560;28;20053;-70
2022/04/11 07:00:44;;;;;;;8.75;3.97;;;5.40;99.90;;;;;;4970759;28;20043;-70
2022/04/11 07:03:10;;;;;;;10.05;4.90;;;5.50;99.90;;;;;;4972293;28;20531;-69
2022/04/11 07:05:40;;;;;;;9.10;4.43;;;5.60;99.90;;;;;;4972660;28;20043;-70
2022/04/11 07:08:08;;;;;;;7.70;4.55;;;5.60;99.90;;;;;;4972397;28;20400;-69
2022/04/11 07:10:35;;;;;;;6.70;4.28;;;5.70;99.90;;;;;;4972020;28;20047;-70
2022/04/11 07:13:01;;;;;;;6.85;4.32;;;5.80;99.90;;;;;;4956547;28;20058;-69
2022/04/11 07:15:26;;;;;;;5.93;4.07;;;5.90;99.90;;;;;;4971672;28;20051;-69
2022/04/11 07:17:53;;;;;;;8.63;4.60;;;6.00;99.90;;;;;;4972714;28;20082;-70
2022/04/11 07:20:19;;;;;;;8.38;4.28;;;6.10;99.90;;;;;;4956664;28;20062;-69
2022/04/11 07:22:45;;;;;;;9.15;4.30;;;6.10;99.90;;;;;;4973157;28;20043;-69
2022/04/11 07:25:11;;;;;;;6.53;4.00;;;6.20;99.90;;;;;;4973695;28;20181;-70
2022/04/11 07:27:37;;;;;;;7.45;4.30;;;6.30;99.90;;;;;;4972986;28;20549;-70
2022/04/11 07:30:04;;;;;;;6.18;4.47;;;6.40;99.90;;;;;;4956550;28;20046;-69
2022/04/11 07:32:30;;;;;;;7.85;4.15;;;6.50;99.90;;;;;;4955537;28;20104;-69
2022/04/11 07:34:59;;;;;;;8.98;4.25;;;6.70;99.90;;;;;;4956588;28;20472;-71
2022/04/11 07:37:27;;;;;;;7.07;3.83;;;6.80;99.90;;;;;;4939938;28;20046;-69
2022/04/11 07:39:54;;;;;;;9.30;3.80;;;6.90;99.90;;;;;;4971747;28;20039;-70
2022/04/11 07:42:20;;;;;;;8.05;3.40;;;7.00;99.90;;;;;;4971057;28;20046;-70
2022/04/11 07:44:46;;;;;;;8.13;4.10;;;7.10;99.90;;;;;;4971848;28;20129;-70
2022/04/11 07:47:12;;;;;;;5.10;3.30;;;7.30;99.90;;;;;;4955540;28;20186;-70
2022/04/11 07:49:38;;;;;;;7.13;3.22;;;7.40;99.90;;;;;;4971498;28;20050;-70
2022/04/11 07:52:04;;;;;;;7.90;3.67;;;7.50;99.90;;;;;;4954622;28;20050;-70
2022/04/11 07:54:30;;;;;;;7.32;3.67;;;7.70;99.90;;;;;;4956266;28;20055;-70
2022/04/11 07:56:56;;;;;;;5.32;3.28;;;7.80;99.90;;;;;;4973104;28;20420;-70
2022/04/11 07:59:21;;;;;;;5.63;2.58;;;7.90;99.90;;;;;;4972975;28;20405;-70
2022/04/11 08:01:47;;;;;;;5.32;2.60;;;7.90;99.90;;;;;;4972227;28;20059;-70
2022/04/11 08:04:13;;;;;;;4.78;2.65;;;7.90;99.90;;;;;;4974148;28;20054;-70
2022/04/11 08:06:39;;;;;;;6.20;2.72;;;8.00;99.90;;;;;;4978530;28;20046;-69
2022/04/11 08:09:05;;;;;;;4.80;2.53;;;8.10;99.90;;;;;;4978501;28;20055;-70
2022/04/11 08:11:31;;;;;;;5.07;2.78;;;8.20;99.90;;;;;;4956166;28;20055;-70
2022/04/11 08:13:57;;;;;;;8.15;3.15;;;8.30;99.90;;;;;;4970954;28;20050;-70
2022/04/11 08:16:22;;;;;;;3.88;2.78;;;8.40;99.90;;;;;;4971350;28;20506;-70
2022/04/11 08:18:48;;;;;;;8.55;2.75;;;8.60;99.90;;;;;;4971516;28;20073;-70
2022/04/11 08:21:14;;;;;;;5.10;2.20;;;8.70;99.90;;;;;;4972845;28;20480;-70
2022/04/11 08:23:40;;;;;;;3.65;2.63;;;8.80;99.90;;;;;;4972905;28;20047;-69
2022/04/11 08:26:06;;;;;;;4.90;2.58;;;8.80;99.90;;;;;;4972159;28;20046;-69
2022/04/11 08:28:32;;;;;;;4.88;2.38;;;8.90;99.90;;;;;;4970466;28;20055;-70
2022/04/11 08:30:58;;;;;;;3.50;2.78;;;8.90;99.90;;;;;;4971543;28;20502;-70
2022/04/11 08:33:24;;;;;;;5.38;2.40;;;8.90;99.90;;;;;;4972283;28;20046;-69
2022/04/11 08:35:49;;;;;;;5.55;2.60;;;8.90;99.90;;;;;;4971619;28;20046;-70
2022/04/11 08:38:15;;;;;;;4.22;2.92;;;9.00;99.90;;;;;;4970630;28;20053;-70
2022/04/11 08:40:41;;;;;;;5.38;2.63;;;9.30;99.90;;;;;;4987005;28;20051;-70
2022/04/11 08:43:09;;;;;;;4.88;2.55;;;9.50;99.90;;;;;;4971850;28;20094;-74
2022/04/11 08:45:36;;;;;;;4.43;2.30;;;9.60;99.90;;;;;;4970415;28;20042;-71
2022/04/11 08:48:01;;;;;;;6.22;2.20;;;9.80;99.90;;;;;;4971007;28;20141;-71
2022/04/11 08:50:27;;;;;;;4.95;1.70;;;9.80;99.90;;;;;;4969806;28;20200;-71
2022/04/11 08:52:56;;;;;;;4.25;2.00;;;10.00;99.90;;;;;;4970810;28;20065;-71
2022/04/11 08:55:22;;;;;;;8.85;2.30;;;10.10;99.90;;;;;;4970167;28;20039;-70
2022/04/11 08:57:48;;;;;;;5.35;2.08;;;10.20;99.90;;;;;;4970839;28;20055;-70
2022/04/11 09:00:20;;;;;;;4.80;2.28;;;10.20;99.90;;;;;;4954451;28;20051;-70
2022/04/11 09:02:47;;;;;;;6.40;2.20;;;10.30;99.90;;;;;;4954102;28;20056;-71
2022/04/11 09:05:20;;;;;;;8.07;2.40;;;10.40;99.90;;;;;;4970049;28;20050;-72
2022/04/11 09:07:55;;;;;;;6.50;2.70;;;10.50;99.90;;;;;;4971303;28;20077;-71
2022/04/11 09:10:26;;;;;;;15.85;3.70;;;10.60;99.90;;;;;;4955883;28;20057;-71
2022/04/11 09:12:54;;;;;;;6.82;2.50;;;10.70;99.90;;;;;;4955513;28;20061;-75
2022/04/11 09:15:23;;;;;;;41.28;10.25;;;10.80;99.90;;;;;;4971070;28;20055;-71
2022/04/11 09:17:49;;;;;;;15.35;4.43;;;10.90;99.90;;;;;;4970972;28;20404;-71
2022/04/11 09:20:18;;;;;;;22.27;5.25;;;11.00;99.90;;;;;;4971353;28;20051;-78
2022/04/11 09:22:44;;;;;;;5.20;2.25;;;11.10;99.90;;;;;;4955200;28;20058;-71
2022/04/11 09:25:30;;;;;;;5.18;2.20;;;11.20;99.90;;;;;;4969977;28;20429;-71
2022/04/11 09:28:10;;;;;;;4.63;2.30;;;11.30;99.90;;;;;;4971165;28;20408;-76
2022/04/11 09:30:43;;;;;;;8.55;2.42;;;11.40;99.90;;;;;;4970260;28;20100;-70
2022/04/11 09:33:10;;;;;;;16.00;4.22;;;11.50;99.90;;;;;;4969864;28;20046;-70
2022/04/11 09:35:39;;;;;;;4.75;2.50;;;11.50;99.90;;;;;;4969370;28;20047;-70
2022/04/11 09:38:15;;;;;;;5.97;2.20;;;11.70;99.90;;;;;;4970317;28;20055;-71
2022/04/11 09:40:41;;;;;;;4.45;2.10;;;11.80;99.90;;;;;;4971795;28;20055;-69
2022/04/11 09:43:09;;;;;;;3.70;2.40;;;11.90;99.90;;;;;;4974026;28;20046;-69
2022/04/11 09:45:46;;;;;;;8.43;2.72;;;12.10;99.90;;;;;;4972793;28;20483;-71
2022/04/11 09:48:17;;;;;;;4.90;2.33;;;12.00;99.90;;;;;;4958024;28;20077;-69
2022/04/11 09:50:43;;;;;;;3.13;1.73;;;12.20;99.90;;;;;;4974021;28;20562;-69
2022/04/11 09:53:14;;;;;;;3.58;2.00;;;12.30;99.90;;;;;;4973134;28;20047;-70
2022/04/11 09:55:43;;;;;;;6.72;1.92;;;12.30;99.90;;;;;;4974155;28;20051;-69
2022/04/11 09:58:09;;;;;;;4.50;1.90;;;12.30;99.90;;;;;;4973444;28;20085;-71
2022/04/11 10:00:39;;;;;;;4.15;1.55;;;12.40;99.90;;;;;;4975101;28;20074;-71
2022/04/11 10:03:06;;;;;;;4.85;2.13;;;12.50;99.00;;;;;;4973496;28;20051;-71
2022/04/11 10:05:33;;;;;;;3.67;2.00;;;12.50;99.90;;;;;;4957837;28;20054;-70
2022/04/11 10:08:01;;;;;;;5.28;1.85;;;12.70;99.90;;;;;;4973526;28;20054;-70
2022/04/11 10:10:28;;;;;;;5.63;2.25;;;12.70;99.90;;;;;;4974650;28;20482;-70
2022/04/11 10:12:57;;;;;;;4.07;1.77;;;12.80;99.90;;;;;;4974970;28;20377;-69
2022/04/11 10:15:23;;;;;;;3.03;2.20;;;12.90;99.90;;;;;;4958765;28;20047;-70
2022/04/11 10:17:54;;;;;;;3.95;1.90;;;12.80;90.30;;;;;;4942023;28;20043;-70
2022/04/11 10:20:24;;;;;;;5.47;1.90;;;12.90;90.50;;;;;;4973280;28;20055;-69
2022/04/11 10:23:03;;;;;;;4.13;1.70;;;13.00;89.10;;;;;;4973066;28;20102;-69
2022/04/11 10:25:31;;;;;;;3.90;1.70;;;13.00;88.20;;;;;;4972288;28;20050;-70
2022/04/11 10:28:25;;;;;;;4.43;1.90;;;13.10;92.90;;;;;;4971727;28;20065;-71
2022/04/11 10:31:07;;;;;;;3.47;1.52;;;13.20;85.40;;;;;;4972939;28;20047;-70
2022/04/11 10:33:47;;;;;;;3.45;1.52;;;13.30;89.90;;;;;;4972172;28;20503;-69
2022/04/11 10:36:38;;;;;;;3.72;1.50;;;13.30;85.40;;;;;;4973410;28;20038;-69
2022/04/11 10:39:16;;;;;;;4.38;1.83;;;13.40;78.00;;;;;;4968180;28;20063;-69
2022/04/11 10:41:57;;;;;;;4.38;1.58;;;13.40;81.20;;;;;;4971450;28;20047;-70
2022/04/11 10:44:40;;;;;;;3.42;1.60;;;13.50;76.50;;;;;;4973099;28;20411;-70
2022/04/11 10:47:09;;;;;;;2.80;1.67;;;13.60;80.50;;;;;;4973488;28;20202;-70
2022/04/11 10:49:50;;;;;;;3.08;1.70;;;13.60;79.20;;;;;;4987289;28;20058;-69
2022/04/11 10:52:35;;;;;;;4.22;1.60;;;13.60;74.70;;;;;;4971466;28;20133;-69
2022/04/11 10:55:17;;;;;;;5.25;1.58;;;13.60;73.00;;;;;;4970980;28;20105;-68
2022/04/11 10:57:48;;;;;;;3.10;1.48;;;13.70;72.70;;;;;;4973006;28;20097;-69
2022/04/11 11:00:14;;;;;;;3.80;1.80;;;13.70;75.80;;;;;;4973526;28;20078;-70
2022/04/11 11:02:56;;;;;;;2.97;1.35;;;13.90;75.70;;;;;;4956596;28;20117;-69
2022/04/11 11:05:39;;;;;;;4.35;1.77;;;14.10;72.30;;;;;;4982862;28;20408;-69
2022/04/11 11:08:14;;;;;;;5.20;1.92;;;14.00;69.20;;;;;;4957439;28;20039;-70
2022/04/11 11:10:44;;;;;;;3.85;1.52;;;14.10;74.90;;;;;;4958089;28;20057;-69
2022/04/11 11:13:36;;;;;;;4.30;1.80;;;14.30;74.50;;;;;;4973064;28;20038;-70
2022/04/11 11:16:08;;;;;;;4.15;1.55;;;14.30;67.70;;;;;;4973117;28;20053;-69
2022/04/11 11:18:52;;;;;;;4.50;1.77;;;14.30;69.20;;;;;;4971331;28;20054;-70
2022/04/11 11:21:44;;;;;;;3.63;1.90;;;14.50;69.60;;;;;;4971918;28;20097;-69
2022/04/11 11:24:12;;;;;;;3.08;1.80;;;14.60;70.90;;;;;;4972139;28;20047;-69
2022/04/11 11:26:38;;;;;;;4.10;1.98;;;14.70;71.20;;;;;;4972307;28;20082;-69
2022/04/11 11:29:17;;;;;;;2.80;1.75;;;14.60;70.40;;;;;;4972513;28;20053;-70
2022/04/11 11:31:44;;;;;;;3.70;1.83;;;14.70;68.30;;;;;;4971361;28;20043;-72
2022/04/11 11:34:14;;;;;;;3.72;1.95;;;14.90;71.50;;;;;;4972515;28;20504;-71
2022/04/11 11:36:41;;;;;;;6.25;2.08;;;15.00;70.70;;;;;;4972328;28;20515;-76
2022/04/11 11:39:21;;;;;;;5.53;2.00;;;15.10;69.90;;;;;;4972266;28;20094;-73
2022/04/11 11:41:50;;;;;;;4.22;1.95;;;15.20;67.10;;;;;;4970937;28;20070;-73
2022/04/11 11:44:17;;;;;;;5.30;2.30;;;15.40;69.50;;;;;;4972184;28;20101;-74
2022/04/11 11:46:47;;;;;;;6.78;2.50;;;15.40;68.30;;;;;;4971928;28;20085;-73
2022/04/11 11:49:13;;;;;;;5.35;2.17;;;15.40;65.30;;;;;;4971678;28;20093;-73
2022/04/11 11:51:38;;;;;;;3.20;2.08;;;15.40;66.70;;;;;;4971888;28;20070;-73
2022/04/11 11:54:05;;;;;;;2.72;2.08;;;15.60;66.20;;;;;;4971731;28;20543;-74
2022/04/11 11:56:41;;;;;;;5.15;2.28;;;15.60;66.40;;;;;;4973170;28;20062;-72
2022/04/11 11:59:07;;;;;;;3.67;2.10;;;16.00;63.70;;;;;;4973219;28;20058;-73
2022/04/11 12:01:33;;;;;;;4.97;2.55;;;15.90;66.10;;;;;;4956009;28;20050;-73
2022/04/11 12:06:43;;;;;;;4.93;2.45;;;16.10;67.80;;;;;;4972577;28;20499;-78
2022/04/11 12:09:09;;;;;;;5.68;2.40;;;16.20;66.50;;;;;;4970121;28;20053;-73
2022/04/11 12:11:35;;;;;;;10.55;2.30;;;16.10;65.70;;;;;;4972461;28;20046;-74
2022/04/11 12:14:07;;;;;;;4.60;2.50;;;16.30;66.20;;;;;;4971523;28;20130;-74
2022/04/11 12:16:37;;;;;;;2.50;2.30;;;16.50;64.80;;;;;;4971588;28;20484;-74
2022/04/11 12:19:05;;;;;;;3.93;2.40;;;16.60;66.00;;;;;;4971260;28;20046;-74
2022/04/11 12:21:39;;;;;;;4.35;2.50;;;16.80;65.10;;;;;;4970982;28;20674;-74
2022/04/11 12:24:07;;;;;;;4.70;2.70;;;17.00;65.20;;;;;;4971220;28;20049;-74
2022/04/11 12:26:38;;;;;;;6.18;2.80;;;17.10;66.80;;;;;;4971529;28;20089;-74
2022/04/11 12:29:16;;;;;;;4.35;3.03;;;17.20;65.70;;;;;;4971186;28;20121;-75
2022/04/11 12:31:58;;;;;;;5.47;3.30;;;17.20;62.20;;;;;;4970879;28;20046;-75
2022/04/11 12:34:36;;;;;;;5.00;2.95;;;17.20;60.50;;;;;;4955952;28;20055;-74
2022/04/11 12:37:05;;;;;;;4.28;2.80;;;17.30;61.10;;;;;;4954315;28;20066;-74
2022/04/11 12:39:47;;;;;;;5.68;2.97;;;17.50;65.30;;;;;;4971353;28;20042;-74
2022/04/11 12:42:24;;;;;;;4.13;3.03;;;17.50;64.80;;;;;;4970783;28;20113;-75
2022/04/11 12:45:04;;;;;;;4.47;3.20;;;17.70;60.80;;;;;;4970932;28;20047;-74
2022/04/11 12:47:30;;;;;;;4.95;3.13;;;17.70;60.20;;;;;;4970737;28;20503;-74
2022/04/11 12:49:56;;;;;;;7.35;3.22;;;18.00;64.40;;;;;;4970820;28;20097;-74
2022/04/11 12:52:24;;;;;;;5.45;3.38;;;18.00;63.40;;;;;;4972125;28;20491;-72
2022/04/11 12:54:59;;;;;;;4.50;2.88;;;18.20;59.20;;;;;;4954732;28;20055;-72
2022/04/11 12:57:31;;;;;;;5.43;3.22;;;18.60;59.70;;;;;;4972353;28;20098;-72
2022/04/11 13:00:15;;;;;;;7.45;3.63;;;18.80;60.90;;;;;;4971123;28;20051;-72